createdAt,value
2023-05-02T00:00:41.357Z,12.60
2023-05-02T00:01:43.600Z,12.63
2023-05-02T00:02:46.372Z,12.65
2023-05-02T00:03:48.793Z,12.64
2023-05-02T00:04:50.807Z,12.65
2023-05-02T00:05:52.726Z,12.67
2023-05-02T00:06:54.878Z,12.69
2023-05-02T00:07:56.807Z,12.68
2023-05-02T00:08:58.741Z,12.71
2023-05-02T00:10:03.307Z,12.72
2023-05-02T00:11:05.786Z,12.73
2023-05-02T00:12:07.725Z,12.76
2023-05-02T00:13:09.664Z,12.77
2023-05-02T00:14:11.599Z,12.79
2023-05-02T00:15:13.552Z,12.79
2023-05-02T00:16:15.590Z,12.77
2023-05-02T00:17:21.543Z,12.78
2023-05-02T00:18:24.603Z,12.79
2023-05-02T00:19:26.502Z,12.72
2023-05-02T00:20:28.358Z,12.68
2023-05-02T00:21:30.345Z,12.61
2023-05-02T00:22:32.709Z,12.46
2023-05-02T00:23:34.651Z,12.45
2023-05-02T00:24:36.676Z,12.47
2023-05-02T00:25:44.216Z,12.47
2023-05-02T00:26:46.732Z,12.47
2023-05-02T00:27:51.382Z,12.44
2023-05-02T00:28:53.316Z,12.35
2023-05-02T00:29:55.355Z,12.35
2023-05-02T00:30:57.183Z,12.36
2023-05-02T00:31:59.141Z,12.35
2023-05-02T00:33:01.061Z,12.36
2023-05-02T00:34:02.958Z,12.41
2023-05-02T00:35:05.049Z,12.48
2023-05-02T00:36:16.501Z,12.50
2023-05-02T00:37:18.348Z,12.45
2023-05-02T00:38:20.215Z,12.49
2023-05-02T00:39:22.101Z,12.53
2023-05-02T00:40:23.929Z,12.58
2023-05-02T00:41:26.416Z,12.64
2023-05-02T00:42:32.022Z,12.68
2023-05-02T00:43:33.932Z,12.72
2023-05-02T00:44:35.849Z,12.74
2023-05-02T00:46:42.840Z,12.74
2023-05-02T00:47:44.690Z,12.74
2023-05-02T00:48:46.903Z,12.74
2023-05-02T00:49:50.268Z,12.76
2023-05-02T00:50:52.268Z,12.78
2023-05-02T00:51:54.431Z,12.81
2023-05-02T00:52:56.284Z,12.84
2023-05-02T00:53:58.369Z,12.83
2023-05-02T00:55:02.145Z,12.84
2023-05-02T00:56:04.015Z,12.85
2023-05-02T00:57:06.215Z,12.85
2023-05-02T00:58:26.687Z,12.86
2023-05-02T00:59:28.730Z,12.89
2023-05-02T01:00:59.688Z,12.90
2023-05-02T01:02:04.436Z,12.88
2023-05-02T01:03:13.382Z,12.86
2023-05-02T01:04:15.352Z,12.83
2023-05-02T01:05:39.990Z,12.84
2023-05-02T01:06:41.987Z,12.86
2023-05-02T01:07:43.933Z,12.86
2023-05-02T01:08:51.246Z,12.88
2023-05-02T01:09:54.240Z,12.87
2023-05-02T01:11:05.023Z,12.85
2023-05-02T01:12:11.303Z,12.85
2023-05-02T01:13:17.752Z,12.87
2023-05-02T01:14:21.756Z,12.88
2023-05-02T01:15:23.825Z,12.88
2023-05-02T01:16:25.848Z,12.88
2023-05-02T01:17:29.369Z,12.86
2023-05-02T01:18:34.131Z,12.86
2023-05-02T01:19:37.247Z,12.88
2023-05-02T01:20:42.264Z,12.88
2023-05-02T01:21:44.539Z,12.88
2023-05-02T01:22:47.050Z,12.91
2023-05-02T01:23:56.806Z,12.92
2023-05-02T01:25:13.731Z,12.91
2023-05-02T01:26:17.785Z,12.86
2023-05-02T01:27:31.462Z,12.84
2023-05-02T01:28:54.618Z,12.87
2023-05-02T01:29:58.446Z,12.89
2023-05-02T01:31:01.876Z,12.84
2023-05-02T01:32:04.847Z,12.84
2023-05-02T01:33:08.708Z,12.84
2023-05-02T01:34:11.380Z,12.85
2023-05-02T01:35:16.918Z,12.84
2023-05-02T01:36:20.103Z,12.83
2023-05-02T01:37:22.977Z,12.82
2023-05-02T01:38:25.674Z,12.85
2023-05-02T01:39:27.821Z,12.85
2023-05-02T01:40:30.299Z,12.84
2023-05-02T01:41:32.614Z,12.76
2023-05-02T01:42:36.780Z,12.72
2023-05-02T01:43:39.783Z,12.73
2023-05-02T01:44:42.778Z,12.76
2023-05-02T01:45:45.907Z,12.80
2023-05-02T01:46:48.979Z,12.81
2023-05-02T01:47:51.715Z,12.83
2023-05-02T01:48:55.445Z,12.86
2023-05-02T01:49:58.343Z,12.87
2023-05-02T01:51:00.633Z,12.89
2023-05-02T01:52:11.814Z,12.90
2023-05-02T01:53:15.854Z,12.91
2023-05-02T01:54:18.781Z,12.88
2023-05-02T01:55:20.715Z,12.86
2023-05-02T01:56:25.636Z,12.86
2023-05-02T01:57:27.814Z,12.86
2023-05-02T01:58:31.007Z,12.88
2023-05-02T01:59:33.740Z,12.88
2023-05-02T02:00:37.484Z,12.90
2023-05-02T02:01:41.745Z,12.90
2023-05-02T02:02:45.179Z,12.91
2023-05-02T02:03:47.684Z,12.86
2023-05-02T02:04:50.470Z,12.76
2023-05-02T02:05:53.363Z,12.73
2023-05-02T02:06:58.542Z,12.73
2023-05-02T02:08:00.545Z,12.74
2023-05-02T02:09:04.099Z,12.76
2023-05-02T02:10:06.366Z,12.75
2023-05-02T02:11:10.434Z,12.78
2023-05-02T02:12:23.904Z,12.80
2023-05-02T02:13:34.984Z,12.80
2023-05-02T02:14:42.406Z,12.80
2023-05-02T02:15:47.468Z,12.80
2023-05-02T02:16:51.655Z,12.76
2023-05-02T02:18:01.319Z,12.74
2023-05-02T02:19:06.293Z,12.72
2023-05-02T02:20:09.868Z,12.70
2023-05-02T02:21:13.358Z,12.67
2023-05-02T02:22:16.702Z,12.64
2023-05-02T02:23:20.186Z,12.65
2023-05-02T02:24:23.113Z,12.59
2023-05-02T02:25:27.157Z,12.54
2023-05-02T02:26:29.109Z,12.52
2023-05-02T02:27:31.074Z,12.57
2023-05-02T02:28:34.511Z,12.62
2023-05-02T02:29:36.447Z,12.67
2023-05-02T02:30:38.419Z,12.67
2023-05-02T02:31:40.444Z,12.65
2023-05-02T02:32:42.682Z,12.65
2023-05-02T02:33:44.602Z,12.65
2023-05-02T02:34:46.502Z,12.65
2023-05-02T02:35:55.127Z,12.69
2023-05-02T02:37:26.824Z,12.71
2023-05-02T02:38:34.487Z,12.68
2023-05-02T02:39:42.515Z,12.60
2023-05-02T02:40:48.209Z,12.58
2023-05-02T02:41:55.620Z,12.61
2023-05-02T02:43:08.542Z,12.59
2023-05-02T02:44:13.657Z,12.58
2023-05-02T02:45:15.646Z,12.60
2023-05-02T02:46:28.514Z,12.61
2023-05-02T02:47:42.037Z,12.64
2023-05-02T02:48:50.678Z,12.65
2023-05-02T02:50:05.254Z,12.68
2023-05-02T02:51:15.116Z,12.70
2023-05-02T02:52:34.291Z,12.70
2023-05-02T02:53:54.232Z,12.70
2023-05-02T02:54:56.022Z,12.70
2023-05-02T02:56:12.752Z,12.71
2023-05-02T02:57:17.097Z,12.69
2023-05-02T02:58:31.006Z,12.69
2023-05-02T02:59:34.409Z,12.70
2023-05-02T03:00:37.049Z,12.72
2023-05-02T03:01:40.733Z,12.72
2023-05-02T03:02:43.389Z,12.72
2023-05-02T03:03:45.824Z,12.73
2023-05-02T03:04:52.053Z,12.76
2023-05-02T03:05:54.395Z,12.78
2023-05-02T03:06:56.414Z,12.78
2023-05-02T03:07:59.400Z,12.79
2023-05-02T03:09:01.958Z,12.81
2023-05-02T03:10:05.546Z,12.84
2023-05-02T03:11:08.491Z,12.83
2023-05-02T03:12:10.435Z,12.79
2023-05-02T03:13:12.329Z,12.80
2023-05-02T03:14:14.252Z,12.82
2023-05-02T03:15:25.528Z,12.84
2023-05-02T03:16:30.776Z,12.88
2023-05-02T03:17:32.717Z,12.86
2023-05-02T03:18:34.623Z,12.88
2023-05-02T03:19:37.568Z,12.90
2023-05-02T03:20:39.455Z,12.90
2023-05-02T03:21:42.112Z,12.91
2023-05-02T03:22:43.970Z,12.91
2023-05-02T03:23:45.789Z,12.91
2023-05-02T03:24:47.624Z,12.93
2023-05-02T03:25:49.457Z,12.94
2023-05-02T03:26:54.608Z,12.96
2023-05-02T03:27:57.622Z,12.96
2023-05-02T03:28:59.524Z,12.97
2023-05-02T03:30:01.866Z,12.99
2023-05-02T03:31:04.395Z,12.98
2023-05-02T03:32:06.339Z,12.95
2023-05-02T03:33:09.312Z,12.95
2023-05-02T03:34:11.339Z,12.95
2023-05-02T03:35:13.201Z,12.96
2023-05-02T03:36:15.595Z,12.99
2023-05-02T03:37:17.472Z,13.01
2023-05-02T03:38:19.447Z,13.02
2023-05-02T03:39:21.328Z,12.99
2023-05-02T03:40:23.239Z,12.98
2023-05-02T03:41:27.684Z,13.00
2023-05-02T03:42:29.562Z,13.04
2023-05-02T03:43:31.807Z,13.05
2023-05-02T03:44:33.639Z,13.07
2023-05-02T03:45:35.607Z,13.08
2023-05-02T03:46:37.646Z,13.06
2023-05-02T03:47:39.612Z,13.04
2023-05-02T03:48:41.526Z,13.05
2023-05-02T03:49:43.391Z,13.03
2023-05-02T03:50:45.184Z,13.00
2023-05-02T03:51:47.089Z,12.92
2023-05-02T03:52:48.917Z,12.84
2023-05-02T03:53:50.760Z,12.82
2023-05-02T03:54:52.571Z,12.79
2023-05-02T03:55:54.543Z,12.80
2023-05-02T03:56:56.638Z,12.79
2023-05-02T03:57:58.468Z,12.78
2023-05-02T03:59:00.342Z,12.74
2023-05-02T04:00:02.512Z,12.77
2023-05-02T04:01:04.576Z,12.80
2023-05-02T04:02:06.692Z,12.84
2023-05-02T04:03:08.999Z,12.86
2023-05-02T04:04:11.641Z,12.87
2023-05-02T04:05:13.534Z,12.90
2023-05-02T04:06:15.392Z,12.90
2023-05-02T04:07:19.905Z,12.91
2023-05-02T04:08:21.868Z,12.92
2023-05-02T04:09:25.682Z,12.91
2023-05-02T04:10:27.553Z,12.92
2023-05-02T04:11:29.427Z,12.92
2023-05-02T04:12:31.324Z,12.93
2023-05-02T04:13:33.371Z,12.93
2023-05-02T04:14:35.410Z,12.94
2023-05-02T04:15:37.954Z,12.94
2023-05-02T04:16:39.848Z,12.95
2023-05-02T04:17:41.817Z,12.96
2023-05-02T04:18:43.748Z,12.96
2023-05-02T04:19:45.615Z,12.96
2023-05-02T04:20:47.415Z,12.94
2023-05-02T04:21:49.273Z,12.95
2023-05-02T04:22:51.310Z,12.95
2023-05-02T04:23:53.217Z,12.94
2023-05-02T04:24:55.097Z,12.96
2023-05-02T04:25:57.007Z,12.95
2023-05-02T04:26:58.920Z,12.90
2023-05-02T04:28:01.304Z,12.87
2023-05-02T04:29:03.246Z,12.90
2023-05-02T04:30:05.491Z,12.91
2023-05-02T04:31:07.665Z,12.91
2023-05-02T04:32:09.837Z,12.92
2023-05-02T04:33:12.299Z,12.95
2023-05-02T04:34:14.162Z,12.95
2023-05-02T04:35:16.062Z,12.98
2023-05-02T04:36:19.559Z,12.95
2023-05-02T04:37:21.446Z,12.90
2023-05-02T04:38:23.478Z,12.83
2023-05-02T04:39:25.361Z,12.81
2023-05-02T04:40:27.306Z,12.82
2023-05-02T04:41:29.660Z,12.83
2023-05-02T04:42:31.440Z,12.79
2023-05-02T04:43:33.285Z,12.80
2023-05-02T04:44:35.404Z,12.86
2023-05-02T04:45:37.368Z,12.86
2023-05-02T04:46:39.253Z,12.86
2023-05-02T04:47:41.110Z,12.87
2023-05-02T04:48:43.004Z,12.88
2023-05-02T04:49:44.849Z,12.87
2023-05-02T04:50:47.396Z,12.87
2023-05-02T04:51:49.178Z,12.86
2023-05-02T04:52:51.040Z,12.86
2023-05-02T04:53:52.905Z,12.85
2023-05-02T04:54:54.874Z,12.84
2023-05-02T04:55:57.480Z,12.85
2023-05-02T04:56:59.899Z,12.86
2023-05-02T04:58:01.741Z,12.86
2023-05-02T04:59:03.547Z,12.88
2023-05-02T05:00:05.936Z,12.91
2023-05-02T05:01:08.149Z,12.92
2023-05-02T05:02:12.832Z,12.92
2023-05-02T05:03:14.917Z,12.92
2023-05-02T05:04:17.102Z,12.93
2023-05-02T05:05:19.518Z,12.90
2023-05-02T05:06:21.610Z,12.84
2023-05-02T05:07:23.534Z,12.83
2023-05-02T05:08:25.502Z,12.82
2023-05-02T05:09:27.429Z,12.84
2023-05-02T05:10:29.306Z,12.85
2023-05-02T05:11:31.331Z,12.80
2023-05-02T05:12:33.293Z,12.80
2023-05-02T05:13:35.176Z,12.81
2023-05-02T05:14:37.015Z,12.83
2023-05-02T05:15:39.581Z,12.81
2023-05-02T05:16:41.585Z,12.81
2023-05-02T05:17:43.598Z,12.80
2023-05-02T05:18:45.521Z,12.81
2023-05-02T05:19:47.339Z,12.86
2023-05-02T05:20:49.193Z,12.87
2023-05-02T05:21:51.392Z,12.88
2023-05-02T05:22:53.272Z,12.91
2023-05-02T05:23:55.195Z,12.93
2023-05-02T05:24:56.981Z,12.94
2023-05-02T05:25:59.516Z,12.87
2023-05-02T05:27:01.323Z,12.81
2023-05-02T05:28:04.112Z,12.77
2023-05-02T05:29:05.942Z,12.74
2023-05-02T05:30:09.345Z,12.69
2023-05-02T05:31:13.070Z,12.69
2023-05-02T05:32:16.596Z,12.68
2023-05-02T05:33:18.726Z,12.68
2023-05-02T05:34:21.314Z,12.65
2023-05-02T05:35:24.527Z,12.63
2023-05-02T05:36:26.961Z,12.60
2023-05-02T05:37:28.763Z,12.62
2023-05-02T05:38:30.865Z,12.66
2023-05-02T05:39:32.866Z,12.71
2023-05-02T05:40:34.710Z,12.74
2023-05-02T05:41:38.531Z,12.76
2023-05-02T05:42:40.380Z,12.79
2023-05-02T05:43:42.175Z,12.81
2023-05-02T05:44:44.030Z,12.79
2023-05-02T05:45:45.950Z,12.80
2023-05-02T05:46:48.182Z,12.81
2023-05-02T05:47:50.131Z,12.84
2023-05-02T05:48:51.955Z,12.83
2023-05-02T05:49:54.438Z,12.81
2023-05-02T05:50:56.270Z,12.80
2023-05-02T05:51:58.141Z,12.74
2023-05-02T05:53:00.089Z,12.69
2023-05-02T05:54:02.618Z,12.69
2023-05-02T05:55:04.723Z,12.71
2023-05-02T05:56:10.280Z,12.73
2023-05-02T05:57:12.193Z,12.73
2023-05-02T05:58:14.053Z,12.77
2023-05-02T05:59:16.190Z,12.74
2023-05-02T06:00:18.183Z,12.75
2023-05-02T06:01:20.055Z,12.77
2023-05-02T06:02:22.027Z,12.76
2023-05-02T06:03:24.030Z,12.76
2023-05-02T06:04:26.103Z,12.77
2023-05-02T06:05:28.271Z,12.75
2023-05-02T06:06:30.369Z,12.75
2023-05-02T06:07:32.323Z,12.75
2023-05-02T06:08:34.474Z,12.72
2023-05-02T06:09:36.603Z,12.70
2023-05-02T06:10:38.438Z,12.71
2023-05-02T06:11:40.278Z,12.69
2023-05-02T06:12:42.153Z,12.72
2023-05-02T06:13:43.959Z,12.73
2023-05-02T06:14:45.952Z,12.71
2023-05-02T06:15:47.835Z,12.68
2023-05-02T06:16:49.882Z,12.59
2023-05-02T06:17:52.288Z,12.61
2023-05-02T06:18:54.214Z,12.60
2023-05-02T06:19:56.079Z,12.61
2023-05-02T06:20:58.325Z,12.61
2023-05-02T06:22:00.177Z,12.63
2023-05-02T06:23:02.048Z,12.60
2023-05-02T06:24:04.041Z,12.63
2023-05-02T06:25:06.912Z,12.67
2023-05-02T06:26:10.510Z,12.69
2023-05-02T06:27:12.376Z,12.68
2023-05-02T06:28:14.189Z,12.69
2023-05-02T06:29:16.107Z,12.69
2023-05-02T06:30:18.059Z,12.67
2023-05-02T06:31:19.979Z,12.68
2023-05-02T06:32:22.049Z,12.70
2023-05-02T06:33:23.927Z,12.73
2023-05-02T06:34:25.773Z,12.75
2023-05-02T06:35:27.681Z,12.78
2023-05-02T06:36:30.265Z,12.81
2023-05-02T06:37:35.975Z,12.85
2023-05-02T06:38:37.974Z,12.87
2023-05-02T06:39:39.823Z,12.88
2023-05-02T06:40:45.485Z,12.86
2023-05-02T06:41:48.791Z,12.87
2023-05-02T06:42:50.649Z,12.89
2023-05-02T06:43:52.570Z,12.87
2023-05-02T06:44:54.749Z,12.86
2023-05-02T06:45:56.770Z,12.87
2023-05-02T06:46:58.735Z,12.84
2023-05-02T06:48:00.676Z,12.83
2023-05-02T06:49:02.563Z,12.82
2023-05-02T06:50:04.670Z,12.84
2023-05-02T06:51:06.671Z,12.88
2023-05-02T06:52:08.736Z,12.94
2023-05-02T06:53:10.630Z,12.99
2023-05-02T06:54:12.510Z,13.01
2023-05-02T06:55:14.563Z,12.99
2023-05-02T06:56:16.452Z,12.92
2023-05-02T06:57:18.366Z,12.86
2023-05-02T06:58:20.266Z,12.85
2023-05-02T06:59:22.154Z,12.87
2023-05-02T07:00:24.093Z,12.85
2023-05-02T07:01:26.128Z,12.84
2023-05-02T07:02:28.053Z,12.80
2023-05-02T07:03:30.026Z,12.84
2023-05-02T07:04:32.009Z,12.89
2023-05-02T07:05:34.017Z,12.91
2023-05-02T07:06:36.086Z,12.93
2023-05-02T07:07:38.135Z,12.97
2023-05-02T07:08:40.066Z,13.00
2023-05-02T07:09:41.946Z,12.99
2023-05-02T07:10:43.766Z,13.00
2023-05-02T07:11:45.678Z,13.01
2023-05-02T07:12:47.531Z,13.05
2023-05-02T07:13:49.344Z,13.00
2023-05-02T07:14:51.287Z,13.01
2023-05-02T07:15:53.497Z,13.05
2023-05-02T07:16:55.458Z,13.07
2023-05-02T07:17:57.471Z,13.09
2023-05-02T07:18:59.671Z,13.11
2023-05-02T07:20:01.796Z,13.14
2023-05-02T07:21:04.181Z,13.14
2023-05-02T07:22:07.127Z,13.09
2023-05-02T07:23:09.652Z,13.02
2023-05-02T07:24:11.493Z,13.01
2023-05-02T07:25:13.393Z,13.04
2023-05-02T07:26:15.286Z,13.06
2023-05-02T07:27:17.174Z,13.07
2023-05-02T07:28:19.010Z,13.10
2023-05-02T07:29:20.856Z,13.04
2023-05-02T07:30:22.748Z,13.06
2023-05-02T07:31:24.660Z,13.10
2023-05-02T07:32:27.256Z,13.15
2023-05-02T07:33:29.596Z,13.19
2023-05-02T07:34:32.060Z,13.20
2023-05-02T07:35:34.128Z,13.18
2023-05-02T07:36:36.058Z,13.16
2023-05-02T07:37:38.022Z,13.17
2023-05-02T07:38:39.851Z,13.17
2023-05-02T07:39:41.775Z,13.15
2023-05-02T07:40:43.946Z,13.12
2023-05-02T07:41:45.826Z,13.13
2023-05-02T07:42:47.856Z,13.15
2023-05-02T07:43:49.837Z,13.15
2023-05-02T07:44:51.783Z,13.17
2023-05-02T07:45:53.795Z,13.17
2023-05-02T07:46:55.787Z,13.19
2023-05-02T07:47:57.744Z,13.22
2023-05-02T07:48:59.639Z,13.23
2023-05-02T07:50:01.929Z,13.21
2023-05-02T07:51:07.776Z,13.19
2023-05-02T07:52:09.666Z,13.15
2023-05-02T07:53:11.867Z,13.13
2023-05-02T07:54:17.775Z,13.14
2023-05-02T07:55:19.733Z,13.17
2023-05-02T07:56:21.664Z,13.20
2023-05-02T07:57:24.044Z,13.26
2023-05-02T07:58:25.918Z,13.32
2023-05-02T07:59:27.796Z,13.26
2023-05-02T08:00:30.755Z,13.23
2023-05-02T08:01:32.838Z,13.24
2023-05-02T08:02:37.358Z,13.29
2023-05-02T08:03:39.757Z,13.30
2023-05-02T08:04:42.033Z,13.30
2023-05-02T08:05:43.883Z,13.31
2023-05-02T08:06:45.929Z,13.33
2023-05-02T08:07:47.899Z,13.36
2023-05-02T08:08:49.803Z,13.36
2023-05-02T08:09:52.092Z,13.33
2023-05-02T08:10:54.055Z,13.36
2023-05-02T08:11:55.920Z,13.34
2023-05-02T08:12:57.763Z,13.35
2023-05-02T08:13:59.564Z,13.38
2023-05-02T08:15:04.806Z,13.43
2023-05-02T08:16:06.920Z,13.38
2023-05-02T08:17:09.051Z,13.37
2023-05-02T08:18:11.009Z,13.37
2023-05-02T08:19:13.014Z,13.36
2023-05-02T08:20:14.852Z,13.38
2023-05-02T08:21:16.753Z,13.40
2023-05-02T08:22:18.772Z,13.42
2023-05-02T08:23:20.665Z,13.43
2023-05-02T08:24:22.852Z,13.42
2023-05-02T08:25:24.711Z,13.39
2023-05-02T08:26:27.650Z,13.42
2023-05-02T08:27:29.647Z,13.45
2023-05-02T08:28:31.540Z,13.44
2023-05-02T08:29:33.609Z,13.39
2023-05-02T08:30:35.580Z,13.38
2023-05-02T08:31:37.929Z,13.36
2023-05-02T08:32:40.075Z,13.32
2023-05-02T08:33:41.941Z,13.32
2023-05-02T08:34:43.807Z,13.33
2023-05-02T08:35:45.692Z,13.38
2023-05-02T08:36:47.550Z,13.37
2023-05-02T08:37:49.392Z,13.34
2023-05-02T08:38:51.246Z,13.33
2023-05-02T08:39:53.128Z,13.33
2023-05-02T08:40:54.962Z,13.36
2023-05-02T08:41:56.832Z,13.41
2023-05-02T08:42:58.889Z,13.42
2023-05-02T08:44:01.066Z,13.39
2023-05-02T08:45:02.999Z,13.34
2023-05-02T08:46:05.751Z,13.37
2023-05-02T08:47:10.407Z,13.41
2023-05-02T08:48:13.720Z,13.45
2023-05-02T08:49:16.164Z,13.47
2023-05-02T08:50:19.023Z,13.47
2023-05-02T08:51:23.722Z,13.48
2023-05-02T08:52:26.112Z,13.49
2023-05-02T08:53:28.614Z,13.49
2023-05-02T08:54:30.882Z,13.44
2023-05-02T08:55:33.422Z,13.41
2023-05-02T08:56:35.304Z,13.42
2023-05-02T08:57:37.291Z,13.40
2023-05-02T08:58:39.919Z,13.34
2023-05-02T08:59:42.987Z,13.33
2023-05-02T09:00:46.333Z,13.31
2023-05-02T09:01:52.989Z,13.30
2023-05-02T09:03:10.120Z,13.26
2023-05-02T09:04:12.378Z,13.27
2023-05-02T09:05:19.412Z,13.25
2023-05-02T09:06:22.199Z,13.24
2023-05-02T09:07:24.079Z,13.24
2023-05-02T09:08:25.996Z,13.17
2023-05-02T09:09:29.364Z,13.17
2023-05-02T09:10:31.372Z,13.16
2023-05-02T09:11:33.580Z,13.17
2023-05-02T09:12:35.477Z,13.16
2023-05-02T09:13:38.588Z,13.18
2023-05-02T09:14:40.494Z,13.18
2023-05-02T09:15:42.482Z,13.17
2023-05-02T09:16:45.078Z,13.14
2023-05-02T09:17:47.694Z,13.10
2023-05-02T09:18:51.047Z,13.08
2023-05-02T09:20:00.318Z,13.07
2023-05-02T09:21:04.373Z,13.07
2023-05-02T09:22:06.348Z,13.10
2023-05-02T09:23:08.923Z,13.13
2023-05-02T09:24:21.041Z,13.14
2023-05-02T09:25:22.888Z,13.14
2023-05-02T09:26:25.160Z,13.11
2023-05-02T09:27:27.980Z,13.12
2023-05-02T09:28:42.370Z,13.15
2023-05-02T09:29:46.260Z,13.18
2023-05-02T09:30:48.536Z,13.20
2023-05-02T09:31:56.357Z,13.23
2023-05-02T09:32:58.733Z,13.23
2023-05-02T09:34:10.852Z,13.23
2023-05-02T09:35:13.826Z,13.26
2023-05-02T09:36:16.690Z,13.30
2023-05-02T09:37:36.882Z,13.32
2023-05-02T09:38:39.159Z,13.39
2023-05-02T09:39:41.201Z,13.43
2023-05-02T09:40:53.911Z,13.45
2023-05-02T09:41:56.342Z,13.42
2023-05-02T09:42:58.382Z,13.39
2023-05-02T09:44:00.288Z,13.39
2023-05-02T09:45:02.425Z,13.40
2023-05-02T09:46:05.460Z,13.35
2023-05-02T09:47:08.983Z,13.35
2023-05-02T09:48:12.514Z,13.35
2023-05-02T09:49:20.820Z,13.36
2023-05-02T09:50:38.668Z,13.34
2023-05-02T09:51:40.938Z,13.33
2023-05-02T09:53:00.977Z,13.36
2023-05-02T09:54:03.593Z,13.39
2023-05-02T09:55:21.005Z,13.42
2023-05-02T09:56:23.945Z,13.38
2023-05-02T09:57:42.207Z,13.37
2023-05-02T09:58:44.423Z,13.41
2023-05-02T09:59:56.375Z,13.43
2023-05-02T10:00:58.559Z,13.43
2023-05-02T10:02:01.676Z,13.45
2023-05-02T10:03:06.253Z,13.40
2023-05-02T10:04:17.340Z,13.42
2023-05-02T10:05:21.011Z,13.47
2023-05-02T10:06:23.244Z,13.53
2023-05-02T10:07:26.398Z,13.57
2023-05-02T10:08:29.110Z,13.56
2023-05-02T10:09:32.913Z,13.57
2023-05-02T10:10:39.348Z,13.55
2023-05-02T10:11:44.600Z,13.60
2023-05-02T10:12:47.975Z,13.64
2023-05-02T10:13:50.126Z,13.65
2023-05-02T10:14:55.991Z,13.67
2023-05-02T10:16:05.166Z,13.67
2023-05-02T10:17:14.463Z,13.66
2023-05-02T10:18:21.632Z,13.68
2023-05-02T10:19:25.328Z,13.65
2023-05-02T10:20:35.701Z,13.65
2023-05-02T10:21:37.687Z,13.65
2023-05-02T10:22:40.010Z,13.69
2023-05-02T10:23:46.007Z,13.67
2023-05-02T10:24:49.489Z,13.67
2023-05-02T10:25:51.529Z,13.68
2023-05-02T10:26:53.783Z,13.69
2023-05-02T10:27:59.775Z,13.71
2023-05-02T10:29:01.899Z,13.74
2023-05-02T10:30:06.985Z,13.77
2023-05-02T10:31:12.875Z,13.74
2023-05-02T10:32:15.400Z,13.71
2023-05-02T10:33:17.692Z,13.70
2023-05-02T10:34:19.845Z,13.70
2023-05-02T10:35:21.930Z,13.76
2023-05-02T10:36:24.230Z,13.75
2023-05-02T10:37:26.836Z,13.77
2023-05-02T10:38:28.713Z,13.78
2023-05-02T10:39:32.192Z,13.85
2023-05-02T10:40:34.296Z,13.89
2023-05-02T10:41:39.213Z,13.93
2023-05-02T10:42:46.392Z,13.93
2023-05-02T10:43:49.452Z,13.94
2023-05-02T10:44:51.430Z,13.97
2023-05-02T10:45:54.297Z,13.97
2023-05-02T10:46:56.419Z,13.93
2023-05-02T10:48:14.687Z,13.89
2023-05-02T10:49:17.131Z,13.91
2023-05-02T10:50:19.074Z,13.90
2023-05-02T10:51:28.091Z,13.92
2023-05-02T10:52:31.885Z,13.95
2023-05-02T10:53:36.724Z,13.98
2023-05-02T10:54:38.703Z,14.03
2023-05-02T10:55:41.090Z,14.05
2023-05-02T10:57:04.469Z,14.07
2023-05-02T10:58:06.469Z,14.07
2023-05-02T10:59:27.928Z,14.07
2023-05-02T11:00:30.998Z,14.04
2023-05-02T11:01:36.687Z,14.04
2023-05-02T11:02:41.722Z,14.05
2023-05-02T11:03:59.584Z,14.07
2023-05-02T11:05:05.437Z,14.10
2023-05-02T11:06:08.232Z,14.12
2023-05-02T11:07:10.357Z,14.12
2023-05-02T11:08:15.418Z,14.16
2023-05-02T11:09:20.540Z,14.21
2023-05-02T11:10:22.396Z,14.21
2023-05-02T11:11:39.281Z,14.25
2023-05-02T11:12:48.053Z,14.26
2023-05-02T11:13:51.398Z,14.28
2023-05-02T11:14:53.230Z,14.29
2023-05-02T11:15:56.178Z,14.28
2023-05-02T11:16:58.317Z,14.29
2023-05-02T11:18:03.263Z,14.24
2023-05-02T11:19:05.193Z,14.23
2023-05-02T11:20:07.876Z,14.27
2023-05-02T11:21:25.949Z,14.31
2023-05-02T11:22:37.041Z,14.28
2023-05-02T11:23:40.811Z,14.23
2023-05-02T11:24:44.928Z,14.21
2023-05-02T11:25:47.789Z,14.24
2023-05-02T11:26:50.163Z,14.25
2023-05-02T11:27:52.112Z,14.24
2023-05-02T11:28:54.017Z,14.18
2023-05-02T11:29:56.990Z,14.14
2023-05-02T11:30:58.862Z,14.13
2023-05-02T11:32:01.010Z,14.14
2023-05-02T11:33:05.670Z,14.15
2023-05-02T11:34:07.572Z,14.11
2023-05-02T11:35:14.293Z,14.05
2023-05-02T11:36:29.754Z,14.06
2023-05-02T11:37:31.765Z,14.08
2023-05-02T11:38:37.850Z,14.06
2023-05-02T11:39:40.821Z,14.06
2023-05-02T11:40:50.201Z,14.06
2023-05-02T11:41:52.224Z,14.00
2023-05-02T11:42:54.584Z,13.97
2023-05-02T11:44:03.701Z,14.00
2023-05-02T11:45:05.856Z,14.02
2023-05-02T11:46:07.834Z,14.02
2023-05-02T11:47:09.851Z,13.92
2023-05-02T11:48:13.099Z,13.86
2023-05-02T11:49:15.612Z,13.87
2023-05-02T11:50:18.251Z,13.86
2023-05-02T11:51:23.259Z,13.88
2023-05-02T11:52:25.392Z,13.87
2023-05-02T11:53:29.695Z,13.84
2023-05-02T11:54:32.643Z,13.88
2023-05-02T11:55:35.747Z,13.90
2023-05-02T11:56:37.816Z,13.88
2023-05-02T11:57:39.856Z,13.91
2023-05-02T11:58:41.651Z,13.94
2023-05-02T11:59:53.910Z,13.96
2023-05-02T12:00:57.597Z,13.98
2023-05-02T12:01:59.567Z,13.96
2023-05-02T12:03:01.471Z,13.96
2023-05-02T12:04:10.691Z,13.99
2023-05-02T12:05:13.648Z,13.89
2023-05-02T12:06:18.982Z,13.80
2023-05-02T12:07:34.749Z,13.78
2023-05-02T12:08:37.201Z,13.76
2023-05-02T12:09:54.229Z,13.75
2023-05-02T12:10:57.160Z,13.75
2023-05-02T12:11:59.035Z,13.74
2023-05-02T12:13:04.748Z,13.71
2023-05-02T12:14:09.611Z,13.72
2023-05-02T12:15:12.886Z,13.77
2023-05-02T12:16:15.055Z,13.82
2023-05-02T12:17:17.415Z,13.90
2023-05-02T12:18:22.073Z,13.96
2023-05-02T12:19:24.302Z,13.94
2023-05-02T12:20:26.149Z,14.00
2023-05-02T12:21:30.240Z,14.05
2023-05-02T12:22:32.381Z,14.13
2023-05-02T12:23:38.619Z,14.25
2023-05-02T12:24:42.396Z,14.28
2023-05-02T12:25:45.732Z,14.32
2023-05-02T12:27:16.054Z,14.37
2023-05-02T12:28:19.388Z,14.49
2023-05-02T12:29:21.394Z,14.55
2023-05-02T12:30:26.876Z,14.59
2023-05-02T12:31:31.595Z,14.58
2023-05-02T12:32:34.529Z,14.56
2023-05-02T12:33:48.569Z,14.57
2023-05-02T12:34:50.422Z,14.58
2023-05-02T12:35:54.265Z,14.57
2023-05-02T12:36:56.238Z,14.57
2023-05-02T12:38:17.599Z,14.60
2023-05-02T12:39:35.011Z,14.63
2023-05-02T12:40:37.411Z,14.66
2023-05-02T12:41:42.830Z,14.71
2023-05-02T12:42:58.807Z,14.72
2023-05-02T12:44:01.292Z,14.63
2023-05-02T12:45:03.195Z,14.65
2023-05-02T12:46:11.657Z,14.69
2023-05-02T12:47:14.569Z,14.58
2023-05-02T12:48:20.371Z,14.59
2023-05-02T12:49:22.233Z,14.66
2023-05-02T12:50:35.337Z,14.71
2023-05-02T12:51:37.310Z,14.76
2023-05-02T12:52:49.405Z,14.75
2023-05-02T12:53:51.267Z,14.66
2023-05-02T12:54:53.209Z,14.65
2023-05-02T12:56:05.283Z,14.65
2023-05-02T12:57:07.507Z,14.64
2023-05-02T12:58:10.568Z,14.65
2023-05-02T12:59:26.483Z,14.66
2023-05-02T13:00:28.879Z,14.67
2023-05-02T13:01:31.889Z,14.65
2023-05-02T13:02:33.826Z,14.58
2023-05-02T13:03:35.917Z,14.55
2023-05-02T13:04:39.431Z,14.56
2023-05-02T13:05:41.462Z,14.49
2023-05-02T13:06:44.059Z,14.45
2023-05-02T13:07:47.453Z,14.40
2023-05-02T13:08:49.425Z,14.39
2023-05-02T13:09:51.304Z,14.39
2023-05-02T13:10:53.506Z,14.38
2023-05-02T13:11:55.434Z,14.40
2023-05-02T13:12:57.390Z,14.39
2023-05-02T13:14:01.684Z,14.40
2023-05-02T13:15:04.946Z,14.39
2023-05-02T13:16:08.313Z,14.34
2023-05-02T13:17:10.655Z,14.28
2023-05-02T13:18:12.812Z,14.23
2023-05-02T13:19:14.849Z,14.20
2023-05-02T13:20:16.776Z,14.17
2023-05-02T13:21:18.757Z,14.18
2023-05-02T13:22:20.822Z,14.22
2023-05-02T13:23:22.905Z,14.25
2023-05-02T13:24:24.805Z,14.26
2023-05-02T13:25:27.202Z,14.31
2023-05-02T13:26:29.100Z,14.34
2023-05-02T13:27:31.147Z,14.34
2023-05-02T13:28:33.805Z,14.29
2023-05-02T13:29:35.685Z,14.29
2023-05-02T13:30:37.528Z,14.31
2023-05-02T13:31:39.509Z,14.32
2023-05-02T13:32:42.043Z,14.33
2023-05-02T13:33:43.953Z,14.33
2023-05-02T13:34:45.776Z,14.34
2023-05-02T13:35:47.650Z,14.32
2023-05-02T13:36:49.497Z,14.31
2023-05-02T13:37:54.117Z,14.30
2023-05-02T13:38:56.362Z,14.25
2023-05-02T13:39:58.199Z,14.24
2023-05-02T13:41:00.042Z,14.24
2023-05-02T13:42:06.215Z,14.23